sensor_id;sensor_type;location;lat;lon;timestamp;pressure;altitude;pressure_sealevel;temperature;humidity
73558;BME280;61829;53.286;10.434;2024-03-02T00:01:54;100222.16;;;9.48;84.20
73558;BME280;61829;53.286;10.434;2024-03-02T00:04:45;100221.16;;;9.49;84.51
73558;BME280;61829;53.286;10.434;2024-03-02T00:07:33;100221.34;;;9.47;84.10
73558;BME280;61829;53.286;10.434;2024-03-02T00:10:20;100210.78;;;9.46;84.44
73558;BME280;61829;53.286;10.434;2024-03-02T00:13:08;100204.63;;;9.52;84.69
73558;BME280;61829;53.286;10.434;2024-03-02T00:15:54;100205.00;;;9.49;85.01
73558;BME280;61829;53.286;10.434;2024-03-02T00:18:40;100210.56;;;9.47;84.91
73558;BME280;61829;53.286;10.434;2024-03-02T00:21:27;100200.84;;;9.46;85.19
73558;BME280;61829;53.286;10.434;2024-03-02T00:24:32;100210.97;;;9.44;85.24
73558;BME280;61829;53.286;10.434;2024-03-02T00:27:19;100214.31;;;9.46;85.59
73558;BME280;61829;53.286;10.434;2024-03-02T00:37:18;100214.44;;;9.38;85.58
73558;BME280;61829;53.286;10.434;2024-03-02T00:40:03;100205.53;;;9.37;86.07
73558;BME280;61829;53.286;10.434;2024-03-02T00:42:49;100198.47;;;9.36;85.73
73558;BME280;61829;53.286;10.434;2024-03-02T00:45:33;100197.84;;;9.34;86.25
73558;BME280;61829;53.286;10.434;2024-03-02T00:48:17;100198.84;;;9.33;86.41
73558;BME280;61829;53.286;10.434;2024-03-02T00:51:02;100189.13;;;9.32;86.38
73558;BME280;61829;53.286;10.434;2024-03-02T00:53:51;100207.97;;;9.32;85.87
73558;BME280;61829;53.286;10.434;2024-03-02T00:56:36;100201.94;;;9.30;85.95
73558;BME280;61829;53.286;10.434;2024-03-02T00:59:23;100189.31;;;9.31;85.71
73558;BME280;61829;53.286;10.434;2024-03-02T01:02:08;100182.28;;;9.30;85.65
73558;BME280;61829;53.286;10.434;2024-03-02T01:04:52;100182.66;;;9.27;85.81
73558;BME280;61829;53.286;10.434;2024-03-02T01:07:38;100177.47;;;9.25;85.97
73558;BME280;61829;53.286;10.434;2024-03-02T01:10:23;100183.25;;;9.22;85.67
73558;BME280;61829;53.286;10.434;2024-03-02T01:13:07;100179.06;;;9.19;85.98
73558;BME280;61829;53.286;10.434;2024-03-02T01:16:10;100182.16;;;9.16;85.88
73558;BME280;61829;53.286;10.434;2024-03-02T01:18:54;100187.25;;;9.11;86.23
73558;BME280;61829;53.286;10.434;2024-03-02T01:21:40;100184.13;;;9.08;86.18
73558;BME280;61829;53.286;10.434;2024-03-02T01:24:25;100174.41;;;9.07;85.97
73558;BME280;61829;53.286;10.434;2024-03-02T01:27:09;100173.97;;;9.03;86.36
73558;BME280;61829;53.286;10.434;2024-03-02T01:29:58;100178.09;;;9.06;86.29
73558;BME280;61829;53.286;10.434;2024-03-02T01:32:43;100174.59;;;9.05;86.08
73558;BME280;61829;53.286;10.434;2024-03-02T01:35:28;100169.81;;;9.01;86.04
73558;BME280;61829;53.286;10.434;2024-03-02T01:38:12;100171.84;;;8.98;86.27
73558;BME280;61829;53.286;10.434;2024-03-02T01:40:57;100163.13;;;8.96;86.33
73558;BME280;61829;53.286;10.434;2024-03-02T01:43:42;100167.69;;;8.96;86.17
73558;BME280;61829;53.286;10.434;2024-03-02T01:46:27;100167.03;;;8.94;86.56
73558;BME280;61829;53.286;10.434;2024-03-02T01:49:11;100169.09;;;8.92;86.34
73558;BME280;61829;53.286;10.434;2024-03-02T01:51:56;100173.00;;;8.89;86.15
73558;BME280;61829;53.286;10.434;2024-03-02T01:54:40;100169.66;;;8.87;86.56
73558;BME280;61829;53.286;10.434;2024-03-02T01:57:25;100169.66;;;8.87;86.59
73558;BME280;61829;53.286;10.434;2024-03-02T02:00:10;100169.22;;;8.84;86.23
73558;BME280;61829;53.286;10.434;2024-03-02T02:02:55;100168.38;;;8.83;86.56
73558;BME280;61829;53.286;10.434;2024-03-02T02:05:42;100172.06;;;8.82;86.17
73558;BME280;61829;53.286;10.434;2024-03-02T02:08:29;100168.56;;;8.82;86.55
73558;BME280;61829;53.286;10.434;2024-03-02T02:11:16;100180.34;;;8.81;86.48
73558;BME280;61829;53.286;10.434;2024-03-02T02:14:02;100176.19;;;8.78;86.40
73558;BME280;61829;53.286;10.434;2024-03-02T02:16:46;100179.88;;;8.77;86.72
73558;BME280;61829;53.286;10.434;2024-03-02T02:19:31;100174.50;;;8.77;86.79
73558;BME280;61829;53.286;10.434;2024-03-02T02:22:16;100176.56;;;8.75;86.50
73558;BME280;61829;53.286;10.434;2024-03-02T02:25:00;100178.22;;;8.76;86.34
73558;BME280;61829;53.286;10.434;2024-03-02T02:27:46;100172.72;;;8.84;86.42
73558;BME280;61829;53.286;10.434;2024-03-02T02:30:32;100169.28;;;8.90;85.94
73558;BME280;61829;53.286;10.434;2024-03-02T02:33:19;100170.94;;;8.91;85.98
73558;BME280;61829;53.286;10.434;2024-03-02T02:36:05;100169.09;;;8.92;85.67
73558;BME280;61829;53.286;10.434;2024-03-02T02:38:49;100165.56;;;8.91;85.59
73558;BME280;61829;53.286;10.434;2024-03-02T02:41:34;100162.09;;;8.76;86.18
73558;BME280;61829;53.286;10.434;2024-03-02T02:44:18;100166.31;;;8.85;85.95
73558;BME280;61829;53.286;10.434;2024-03-02T02:47:03;100165.09;;;8.88;85.84
73558;BME280;61829;53.286;10.434;2024-03-02T02:49:47;100165.94;;;8.88;85.85
73558;BME280;61829;53.286;10.434;2024-03-02T02:52:36;100168.81;;;8.87;85.98
73558;BME280;61829;53.286;10.434;2024-03-02T02:55:24;100167.16;;;8.86;86.04
73558;BME280;61829;53.286;10.434;2024-03-02T02:58:11;100165.09;;;8.88;85.82
73558;BME280;61829;53.286;10.434;2024-03-02T03:00:56;100159.28;;;8.84;85.99
73558;BME280;61829;53.286;10.434;2024-03-02T03:03:42;100156.59;;;8.84;85.78
73558;BME280;61829;53.286;10.434;2024-03-02T03:06:26;100161.31;;;8.82;85.74
73558;BME280;61829;53.286;10.434;2024-03-02T03:09:11;100159.84;;;8.80;85.93
73558;BME280;61829;53.286;10.434;2024-03-02T03:11:55;100152.66;;;8.65;86.59
73558;BME280;61829;53.286;10.434;2024-03-02T03:14:41;100150.75;;;8.59;86.91
73558;BME280;61829;53.286;10.434;2024-03-02T03:17:26;100155.72;;;8.62;86.73
73558;BME280;61829;53.286;10.434;2024-03-02T03:20:11;100149.25;;;8.57;86.65
73558;BME280;61829;53.286;10.434;2024-03-02T03:23:00;100151.13;;;8.56;86.98
73558;BME280;61829;53.286;10.434;2024-03-02T03:25:44;100151.94;;;8.57;87.02
73558;BME280;61829;53.286;10.434;2024-03-02T03:28:28;100151.13;;;8.56;86.92
73558;BME280;61829;53.286;10.434;2024-03-02T03:31:13;100143.88;;;8.57;86.66
73558;BME280;61829;53.286;10.434;2024-03-02T03:33:59;100141.84;;;8.59;86.88
73558;BME280;61829;53.286;10.434;2024-03-02T03:36:44;100151.56;;;8.60;86.37
73558;BME280;61829;53.286;10.434;2024-03-02T03:39:28;100155.34;;;8.65;86.25
73558;BME280;61829;53.286;10.434;2024-03-02T03:42:14;100144.16;;;8.62;86.32
73558;BME280;61829;53.286;10.434;2024-03-02T03:44:58;100145.81;;;8.77;85.49
73558;BME280;61829;53.286;10.434;2024-03-02T03:47:43;100145.53;;;8.72;86.07
73558;BME280;61829;53.286;10.434;2024-03-02T03:50:28;100142.56;;;8.67;86.29
73558;BME280;61829;53.286;10.434;2024-03-02T03:53:12;100149.44;;;8.70;85.80
73558;BME280;61829;53.286;10.434;2024-03-02T03:55:59;100144.88;;;8.70;85.90
73558;BME280;61829;53.286;10.434;2024-03-02T03:58:44;100141.38;;;8.70;85.82
73558;BME280;61829;53.286;10.434;2024-03-02T04:01:28;100148.59;;;8.69;86.05
73558;BME280;61829;53.286;10.434;2024-03-02T04:04:13;100145.16;;;8.75;85.68
73558;BME280;61829;53.286;10.434;2024-03-02T04:06:57;100147.44;;;8.79;85.55
73558;BME280;61829;53.286;10.434;2024-03-02T04:09:42;100146.34;;;8.73;85.97
73558;BME280;61829;53.286;10.434;2024-03-02T04:12:26;100136.44;;;8.73;85.85
73558;BME280;61829;53.286;10.434;2024-03-02T04:15:11;100143.47;;;8.74;85.70
73558;BME280;61829;53.286;10.434;2024-03-02T04:17:56;100126.72;;;8.72;85.90
73558;BME280;61829;53.286;10.434;2024-03-02T04:20:40;100119.28;;;8.74;85.74
73558;BME280;61829;53.286;10.434;2024-03-02T04:23:26;100133.47;;;8.68;86.18
73558;BME280;61829;53.286;10.434;2024-03-02T04:26:10;100142.75;;;8.66;86.29
73558;BME280;61829;53.286;10.434;2024-03-02T04:28:55;100142.75;;;8.66;86.17
73558;BME280;61829;53.286;10.434;2024-03-02T04:31:39;100136.38;;;8.67;86.37
73558;BME280;61829;53.286;10.434;2024-03-02T04:34:23;100131.00;;;8.67;86.35
73558;BME280;61829;53.286;10.434;2024-03-02T04:37:09;100139.06;;;8.67;86.33
73558;BME280;61829;53.286;10.434;2024-03-02T04:39:54;100129.16;;;8.67;86.16
73558;BME280;61829;53.286;10.434;2024-03-02T04:42:41;100138.03;;;8.68;86.28
73558;BME280;61829;53.286;10.434;2024-03-02T04:45:26;100148.78;;;8.68;85.93
73558;BME280;61829;53.286;10.434;2024-03-02T04:48:10;100143.94;;;8.78;85.55
73558;BME280;61829;53.286;10.434;2024-03-02T04:50:55;100154.78;;;8.70;85.73
73558;BME280;61829;53.286;10.434;2024-03-02T04:53:41;100149.81;;;8.67;86.27
73558;BME280;61829;53.286;10.434;2024-03-02T04:56:26;100149.22;;;8.71;85.92
73558;BME280;61829;53.286;10.434;2024-03-02T04:59:11;100145.44;;;8.66;85.89
73558;BME280;61829;53.286;10.434;2024-03-02T05:01:55;100151.19;;;8.63;85.95
73558;BME280;61829;53.286;10.434;2024-03-02T05:04:40;100152.88;;;8.64;86.20
73558;BME280;61829;53.286;10.434;2024-03-02T05:07:25;100147.88;;;8.61;86.33
73558;BME280;61829;53.286;10.434;2024-03-02T05:10:10;100145.38;;;8.59;86.42
73558;BME280;61829;53.286;10.434;2024-03-02T05:12:56;100151.78;;;8.58;86.17
73558;BME280;61829;53.286;10.434;2024-03-02T05:15:44;100159.84;;;8.58;86.22
73558;BME280;61829;53.286;10.434;2024-03-02T05:18:29;100156.66;;;8.54;86.45
73558;BME280;61829;53.286;10.434;2024-03-02T05:21:14;100154.19;;;8.53;86.51
73558;BME280;61829;53.286;10.434;2024-03-02T05:24:07;100148.16;;;8.51;86.63
73558;BME280;61829;53.286;10.434;2024-03-02T05:26:51;100146.50;;;8.50;86.55
73558;BME280;61829;53.286;10.434;2024-03-02T05:29:36;100143.00;;;8.49;86.58
73558;BME280;61829;53.286;10.434;2024-03-02T05:32:21;100152.06;;;8.48;86.67
73558;BME280;61829;53.286;10.434;2024-03-02T05:35:05;100152.06;;;8.48;86.48
73558;BME280;61829;53.286;10.434;2024-03-02T05:37:50;100146.69;;;8.48;86.43
73558;BME280;61829;53.286;10.434;2024-03-02T05:40:40;100139.66;;;8.47;86.07
73558;BME280;61829;53.286;10.434;2024-03-02T05:43:25;100149.38;;;8.48;86.13
73558;BME280;61829;53.286;10.434;2024-03-02T05:46:09;100145.41;;;8.44;86.17
73558;BME280;61829;53.286;10.434;2024-03-02T05:48:54;100146.41;;;8.43;86.24
73558;BME280;61829;53.286;10.434;2024-03-02T05:51:38;100136.91;;;8.41;86.17
73558;BME280;61829;53.286;10.434;2024-03-02T05:54:23;100155.88;;;8.39;86.06
73558;BME280;61829;53.286;10.434;2024-03-02T05:57:07;100154.00;;;8.40;86.16
73558;BME280;61829;53.286;10.434;2024-03-02T06:00:07;100155.88;;;8.39;86.38
73558;BME280;61829;53.286;10.434;2024-03-02T06:02:52;100160.41;;;8.39;86.23
73558;BME280;61829;53.286;10.434;2024-03-02T06:05:39;100171.16;;;8.39;86.35
73558;BME280;61829;53.286;10.434;2024-03-02T06:08:24;100165.78;;;8.39;86.43
73558;BME280;61829;53.286;10.434;2024-03-02T06:11:09;100162.06;;;8.40;86.33
73558;BME280;61829;53.286;10.434;2024-03-02T06:13:54;100164.56;;;8.41;86.53
73558;BME280;61829;53.286;10.434;2024-03-02T06:16:38;100157.34;;;8.42;86.21
73558;BME280;61829;53.286;10.434;2024-03-02T06:19:22;100161.69;;;8.43;86.39
73558;BME280;61829;53.286;10.434;2024-03-02T06:22:07;100162.50;;;8.43;86.23
73558;BME280;61829;53.286;10.434;2024-03-02T06:24:54;100165.03;;;8.45;86.32
73558;BME280;61829;53.286;10.434;2024-03-02T06:27:39;100169.56;;;8.44;86.16
73558;BME280;61829;53.286;10.434;2024-03-02T06:30:24;100166.69;;;8.46;86.31
73558;BME280;61829;53.286;10.434;2024-03-02T06:33:09;100166.50;;;8.47;86.27
73558;BME280;61829;53.286;10.434;2024-03-02T06:35:55;100163.81;;;8.47;85.93
73558;BME280;61829;53.286;10.434;2024-03-02T06:38:40;100167.34;;;8.48;86.32
73558;BME280;61829;53.286;10.434;2024-03-02T06:41:29;100168.00;;;8.50;86.10
73558;BME280;61829;53.286;10.434;2024-03-02T06:44:14;100161.41;;;8.52;85.66
73558;BME280;61829;53.286;10.434;2024-03-02T06:46:59;100170.75;;;8.57;85.86
73558;BME280;61829;53.286;10.434;2024-03-02T06:49:43;100168.72;;;8.59;85.64
73558;BME280;61829;53.286;10.434;2024-03-02T06:52:28;100174.34;;;8.64;85.43
73558;BME280;61829;53.286;10.434;2024-03-02T06:55:12;100172.13;;;8.67;85.18
73558;BME280;61829;53.286;10.434;2024-03-02T06:57:57;100173.22;;;8.73;84.94
73558;BME280;61829;53.286;10.434;2024-03-02T07:00:42;100179.25;;;8.75;84.58
73558;BME280;61829;53.286;10.434;2024-03-02T07:03:28;100174.09;;;8.80;84.72
73558;BME280;61829;53.286;10.434;2024-03-02T07:06:13;100171.91;;;8.84;84.15
73558;BME280;61829;53.286;10.434;2024-03-02T07:08:57;100175.03;;;8.87;83.93
73558;BME280;61829;53.286;10.434;2024-03-02T07:11:42;100177.97;;;8.92;83.83
73558;BME280;61829;53.286;10.434;2024-03-02T07:14:27;100177.22;;;8.98;83.45
73558;BME280;61829;53.286;10.434;2024-03-02T07:17:32;100178.31;;;9.04;83.10
73558;BME280;61829;53.286;10.434;2024-03-02T07:20:17;100174.03;;;9.10;82.73
73558;BME280;61829;53.286;10.434;2024-03-02T07:23:02;100178.63;;;9.16;82.56
73558;BME280;61829;53.286;10.434;2024-03-02T07:25:47;100175.16;;;9.22;82.10
73558;BME280;61829;53.286;10.434;2024-03-02T07:28:31;100175.03;;;9.30;81.05
73558;BME280;61829;53.286;10.434;2024-03-02T07:31:16;100173.44;;;9.36;80.98
73558;BME280;61829;53.286;10.434;2024-03-02T07:34:01;100170.81;;;9.42;80.54
73558;BME280;61829;53.286;10.434;2024-03-02T07:36:46;100170.22;;;9.47;80.42
73558;BME280;61829;53.286;10.434;2024-03-02T07:39:30;100174.22;;;9.51;80.03
73558;BME280;61829;53.286;10.434;2024-03-02T07:42:15;100184.19;;;9.57;79.53
73558;BME280;61829;53.286;10.434;2024-03-02T07:45:01;100196.25;;;9.68;79.13
73558;BME280;61829;53.286;10.434;2024-03-02T07:47:46;100195.28;;;9.76;79.12
73558;BME280;61829;53.286;10.434;2024-03-02T07:50:31;100205.72;;;9.85;79.04
73558;BME280;61829;53.286;10.434;2024-03-02T07:53:19;100207.44;;;9.93;78.76
73558;BME280;61829;53.286;10.434;2024-03-02T07:56:06;100203.75;;;10.01;77.79
73558;BME280;61829;53.286;10.434;2024-03-02T07:58:54;100214.16;;;10.10;78.14
73558;BME280;61829;53.286;10.434;2024-03-02T08:01:40;100213.84;;;10.20;77.73
73558;BME280;61829;53.286;10.434;2024-03-02T08:04:24;100221.56;;;10.30;77.24
73558;BME280;61829;53.286;10.434;2024-03-02T08:07:09;100222.88;;;10.41;76.68
73558;BME280;61829;53.286;10.434;2024-03-02T08:09:54;100219.03;;;10.56;76.37
73558;BME280;61829;53.286;10.434;2024-03-02T08:12:42;100234.66;;;10.74;76.02
73558;BME280;61829;53.286;10.434;2024-03-02T08:15:33;100226.22;;;10.91;74.31
73558;BME280;61829;53.286;10.434;2024-03-02T08:18:18;100231.09;;;11.22;73.99
73558;BME280;61829;53.286;10.434;2024-03-02T08:21:05;100230.31;;;11.48;73.02
73558;BME280;61829;53.286;10.434;2024-03-02T08:23:50;100244.88;;;11.67;72.15
73558;BME280;61829;53.286;10.434;2024-03-02T08:26:35;100238.03;;;11.84;70.25
73558;BME280;61829;53.286;10.434;2024-03-02T08:29:20;100236.81;;;12.00;69.61
73558;BME280;61829;53.286;10.434;2024-03-02T08:32:05;100236.41;;;12.03;69.06
73558;BME280;61829;53.286;10.434;2024-03-02T08:34:50;100238.25;;;11.96;69.14
73558;BME280;61829;53.286;10.434;2024-03-02T08:37:37;100236.81;;;11.94;69.37
73558;BME280;61829;53.286;10.434;2024-03-02T08:40:23;100236.81;;;12.07;69.10
73558;BME280;61829;53.286;10.434;2024-03-02T08:43:08;100247.59;;;12.20;68.17
73558;BME280;61829;53.286;10.434;2024-03-02T08:45:53;100243.22;;;12.26;68.41
73558;BME280;61829;53.286;10.434;2024-03-02T08:48:37;100237.78;;;12.39;68.18
73558;BME280;61829;53.286;10.434;2024-03-02T08:51:21;100244.16;;;12.65;67.86
73558;BME280;61829;53.286;10.434;2024-03-02T08:54:06;100243.84;;;12.93;67.05
73558;BME280;61829;53.286;10.434;2024-03-02T08:56:50;100243.16;;;13.11;66.16
73558;BME280;61829;53.286;10.434;2024-03-02T08:59:35;100243.47;;;13.34;65.61
73558;BME280;61829;53.286;10.434;2024-03-02T09:02:20;100238.19;;;13.46;64.65
73558;BME280;61829;53.286;10.434;2024-03-02T09:05:07;100243.34;;;13.54;62.79
73558;BME280;61829;53.286;10.434;2024-03-02T09:07:53;100244.25;;;13.73;63.78
73558;BME280;61829;53.286;10.434;2024-03-02T09:10:37;100249.53;;;13.86;62.58
73558;BME280;61829;53.286;10.434;2024-03-02T09:13:24;100247.09;;;14.03;61.73
73558;BME280;61829;53.286;10.434;2024-03-02T09:16:08;100242.50;;;14.04;61.11
73558;BME280;61829;53.286;10.434;2024-03-02T09:18:55;100250.03;;;14.27;60.81
73558;BME280;61829;53.286;10.434;2024-03-02T09:25:20;100246.91;;;14.23;58.71
73558;BME280;61829;53.286;10.434;2024-03-02T09:28:05;100250.25;;;14.25;58.55
73558;BME280;61829;53.286;10.434;2024-03-02T09:30:51;100250.13;;;14.38;58.76
73558;BME280;61829;53.286;10.434;2024-03-02T09:33:37;100254.97;;;14.55;58.21
73558;BME280;61829;53.286;10.434;2024-03-02T09:36:23;100245.50;;;14.64;57.21
73558;BME280;61829;53.286;10.434;2024-03-02T09:39:08;100253.19;;;14.67;57.45
73558;BME280;61829;53.286;10.434;2024-03-02T09:41:59;100250.31;;;14.80;56.22
73558;BME280;61829;53.286;10.434;2024-03-02T09:44:43;100260.53;;;14.97;56.42
73558;BME280;61829;53.286;10.434;2024-03-02T09:47:28;100256.53;;;14.99;55.99
73558;BME280;61829;53.286;10.434;2024-03-02T09:50:13;100253.16;;;14.86;55.08
73558;BME280;61829;53.286;10.434;2024-03-02T09:52:59;100256.31;;;14.82;56.06
73558;BME280;61829;53.286;10.434;2024-03-02T09:55:46;100260.47;;;14.85;56.02
73558;BME280;61829;53.286;10.434;2024-03-02T09:58:31;100261.03;;;14.75;54.71
73558;BME280;61829;53.286;10.434;2024-03-02T10:01:15;100259.94;;;14.76;55.61
73558;BME280;61829;53.286;10.434;2024-03-02T10:04:01;100262.00;;;14.81;55.27
73558;BME280;61829;53.286;10.434;2024-03-02T10:07:32;100262.53;;;14.90;55.73
73558;BME280;61829;53.286;10.434;2024-03-02T10:10:17;100261.84;;;14.76;54.77
73558;BME280;61829;53.286;10.434;2024-03-02T10:13:12;100252.88;;;14.75;55.37
73558;BME280;61829;53.286;10.434;2024-03-02T10:16:11;100257.25;;;14.76;55.70
73558;BME280;61829;53.286;10.434;2024-03-02T10:18:56;100270.06;;;14.69;55.22
73558;BME280;61829;53.286;10.434;2024-03-02T10:21:41;100269.81;;;14.71;55.47
73558;BME280;61829;53.286;10.434;2024-03-02T10:24:26;100263.50;;;14.77;55.42
73558;BME280;61829;53.286;10.434;2024-03-02T10:27:27;100268.91;;;14.77;55.46
73558;BME280;61829;53.286;10.434;2024-03-02T10:30:13;100269.75;;;14.77;55.81
73558;BME280;61829;53.286;10.434;2024-03-02T10:32:58;100263.50;;;14.77;55.50
73558;BME280;61829;53.286;10.434;2024-03-02T10:35:43;100269.44;;;14.67;55.62
73558;BME280;61829;53.286;10.434;2024-03-02T10:38:30;100269.13;;;14.57;54.99
73558;BME280;61829;53.286;10.434;2024-03-02T10:41:26;100277.44;;;14.62;56.14
73558;BME280;61829;53.286;10.434;2024-03-02T10:44:11;100279.03;;;14.70;55.95
73558;BME280;61829;53.286;10.434;2024-03-02T10:46:56;100274.59;;;14.75;56.07
73558;BME280;61829;53.286;10.434;2024-03-02T10:49:46;100273.81;;;14.87;55.57
73558;BME280;61829;53.286;10.434;2024-03-02T10:52:40;100283.06;;;14.97;55.02
73558;BME280;61829;53.286;10.434;2024-03-02T10:55:25;100278.91;;;15.13;54.45
73558;BME280;61829;53.286;10.434;2024-03-02T10:58:12;100281.47;;;15.26;53.59
73558;BME280;61829;53.286;10.434;2024-03-02T11:00:58;100281.72;;;15.37;53.68
73558;BME280;61829;53.286;10.434;2024-03-02T11:03:47;100271.97;;;15.47;52.86
73558;BME280;61829;53.286;10.434;2024-03-02T11:06:36;100279.16;;;15.42;52.82
73558;BME280;61829;53.286;10.434;2024-03-02T11:09:26;100279.63;;;15.39;52.86
73558;BME280;61829;53.286;10.434;2024-03-02T11:12:23;100277.41;;;15.47;53.65
73558;BME280;61829;53.286;10.434;2024-03-02T11:15:17;100271.28;;;15.52;53.32
73558;BME280;61829;53.286;10.434;2024-03-02T11:18:04;100271.44;;;15.57;53.91
73558;BME280;61829;53.286;10.434;2024-03-02T11:20:54;100278.03;;;15.61;53.61
73558;BME280;61829;53.286;10.434;2024-03-02T11:23:41;100272.47;;;15.75;53.27
73558;BME280;61829;53.286;10.434;2024-03-02T11:26:25;100273.91;;;15.89;52.98
73558;BME280;61829;53.286;10.434;2024-03-02T11:29:13;100277.22;;;15.91;52.39
73558;BME280;61829;53.286;10.434;2024-03-02T11:32:33;100282.06;;;16.01;52.35
73558;BME280;61829;53.286;10.434;2024-03-02T11:35:18;100277.13;;;16.09;53.06
73558;BME280;61829;53.286;10.434;2024-03-02T11:38:02;100269.78;;;16.10;52.92
73558;BME280;61829;53.286;10.434;2024-03-02T11:40:48;100274.16;;;16.11;52.05
73558;BME280;61829;53.286;10.434;2024-03-02T11:43:43;100266.25;;;16.09;51.83
73558;BME280;61829;53.286;10.434;2024-03-02T11:46:29;100262.69;;;15.97;51.84
73558;BME280;61829;53.286;10.434;2024-03-02T11:49:14;100263.63;;;15.91;52.70
73558;BME280;61829;53.286;10.434;2024-03-02T11:52:02;100273.06;;;15.88;53.18
73558;BME280;61829;53.286;10.434;2024-03-02T11:54:48;100266.94;;;15.93;52.99
73558;BME280;61829;53.286;10.434;2024-03-02T11:57:35;100266.44;;;15.96;52.94
73558;BME280;61829;53.286;10.434;2024-03-02T12:00:20;100265.53;;;16.02;54.25
73558;BME280;61829;53.286;10.434;2024-03-02T12:03:13;100264.69;;;16.13;53.91
73558;BME280;61829;53.286;10.434;2024-03-02T12:05:57;100265.91;;;16.17;52.47
73558;BME280;61829;53.286;10.434;2024-03-02T12:08:44;100270.97;;;16.14;51.92
73558;BME280;61829;53.286;10.434;2024-03-02T12:11:32;100270.84;;;16.09;52.03
73558;BME280;61829;53.286;10.434;2024-03-02T12:14:16;100272.84;;;16.02;52.40
73558;BME280;61829;53.286;10.434;2024-03-02T12:17:00;100264.81;;;15.95;51.90
73558;BME280;61829;53.286;10.434;2024-03-02T12:19:45;100276.47;;;15.84;52.61
73558;BME280;61829;53.286;10.434;2024-03-02T12:22:31;100264.78;;;15.83;53.48
73558;BME280;61829;53.286;10.434;2024-03-02T12:25:16;100265.47;;;15.79;52.38
73558;BME280;61829;53.286;10.434;2024-03-02T12:28:02;100269.59;;;15.69;52.92
73558;BME280;61829;53.286;10.434;2024-03-02T12:30:48;100265.94;;;15.76;53.53
73558;BME280;61829;53.286;10.434;2024-03-02T12:33:33;100266.41;;;15.73;53.68
73558;BME280;61829;53.286;10.434;2024-03-02T12:36:17;100260.38;;;15.70;53.39
73558;BME280;61829;53.286;10.434;2024-03-02T12:39:03;100256.84;;;15.70;53.78
73558;BME280;61829;53.286;10.434;2024-03-02T12:41:51;100253.31;;;15.69;53.68
73558;BME280;61829;53.286;10.434;2024-03-02T12:44:39;100260.38;;;15.70;53.68
73558;BME280;61829;53.286;10.434;2024-03-02T12:47:24;100255.09;;;15.76;54.66
73558;BME280;61829;53.286;10.434;2024-03-02T12:50:09;100259.22;;;15.78;54.19
73558;BME280;61829;53.286;10.434;2024-03-02T12:52:54;100259.69;;;15.75;54.04
73558;BME280;61829;53.286;10.434;2024-03-02T12:55:39;100257.31;;;15.79;54.61
73558;BME280;61829;53.286;10.434;2024-03-02T12:58:24;100264.38;;;15.68;53.90
73558;BME280;61829;53.286;10.434;2024-03-02T13:01:08;100261.44;;;15.69;53.87
73558;BME280;61829;53.286;10.434;2024-03-02T13:03:55;100258.94;;;15.68;53.87
73558;BME280;61829;53.286;10.434;2024-03-02T13:06:40;100256.91;;;15.63;54.21
73558;BME280;61829;53.286;10.434;2024-03-02T13:09:25;100263.53;;;15.67;53.89
73558;BME280;61829;53.286;10.434;2024-03-02T13:12:10;100260.94;;;15.61;54.16
73558;BME280;61829;53.286;10.434;2024-03-02T13:14:57;100257.34;;;15.48;54.01
73558;BME280;61829;53.286;10.434;2024-03-02T13:17:44;100261.13;;;15.47;54.26
73558;BME280;61829;53.286;10.434;2024-03-02T13:20:30;100263.00;;;15.47;54.58
73558;BME280;61829;53.286;10.434;2024-03-02T13:23:15;100264.28;;;15.44;55.45
73558;BME280;61829;53.286;10.434;2024-03-02T13:26:00;100256.28;;;15.49;55.43
73558;BME280;61829;53.286;10.434;2024-03-02T13:28:45;100253.31;;;15.51;55.05
73558;BME280;61829;53.286;10.434;2024-03-02T13:31:30;100261.13;;;15.47;54.95
73558;BME280;61829;53.286;10.434;2024-03-02T13:34:14;100263.22;;;15.45;55.30
73558;BME280;61829;53.286;10.434;2024-03-02T13:36:59;100254.56;;;15.37;55.38
73558;BME280;61829;53.286;10.434;2024-03-02T13:39:47;100252.22;;;15.29;55.05
73558;BME280;61829;53.286;10.434;2024-03-02T13:42:32;100253.63;;;15.31;54.65
73558;BME280;61829;53.286;10.434;2024-03-02T13:45:17;100249.34;;;15.23;54.69
73558;BME280;61829;53.286;10.434;2024-03-02T13:48:03;100254.63;;;15.18;55.32
73558;BME280;61829;53.286;10.434;2024-03-02T13:50:47;100252.59;;;15.14;55.46
73558;BME280;61829;53.286;10.434;2024-03-02T13:53:32;100255.56;;;15.12;54.98
73558;BME280;61829;53.286;10.434;2024-03-02T13:56:16;100243.41;;;15.15;55.57
73558;BME280;61829;53.286;10.434;2024-03-02T13:59:01;100249.22;;;15.18;55.50
73558;BME280;61829;53.286;10.434;2024-03-02T14:01:46;100240.75;;;15.26;55.72
73558;BME280;61829;53.286;10.434;2024-03-02T14:04:35;100242.28;;;15.34;56.02
73558;BME280;61829;53.286;10.434;2024-03-02T14:07:19;100235.22;;;15.33;55.45
73558;BME280;61829;53.286;10.434;2024-03-02T14:10:38;100238.75;;;15.34;54.85
73558;BME280;61829;53.286;10.434;2024-03-02T14:13:23;100239.34;;;15.36;54.98
73558;BME280;61829;53.286;10.434;2024-03-02T14:16:07;100232.75;;;15.32;54.59
73558;BME280;61829;53.286;10.434;2024-03-02T14:18:54;100242.84;;;15.24;55.35
73558;BME280;61829;53.286;10.434;2024-03-02T14:21:39;100228.69;;;15.22;54.81
73558;BME280;61829;53.286;10.434;2024-03-02T14:24:26;100235.38;;;15.20;55.19
73558;BME280;61829;53.286;10.434;2024-03-02T14:27:13;100237.38;;;15.13;55.16
73558;BME280;61829;53.286;10.434;2024-03-02T14:29:58;100230.16;;;15.07;55.28
73558;BME280;61829;53.286;10.434;2024-03-02T14:32:46;100230.16;;;15.07;56.08
73558;BME280;61829;53.286;10.434;2024-03-02T14:35:35;100231.44;;;15.04;56.26